createdAt,value
2023-09-07T00:00:01.364Z,4.10
2023-09-07T00:05:07.338Z,4.07
2023-09-07T00:10:10.379Z,3.60
2023-09-07T00:15:12.940Z,4.13
2023-09-07T00:20:16.834Z,4.50
2023-09-07T00:25:19.437Z,4.47
2023-09-07T00:30:23.018Z,4.40
2023-09-07T00:35:27.051Z,4.40
2023-09-07T00:40:29.677Z,4.20
2023-09-07T00:45:32.618Z,4.57
2023-09-07T00:50:36.806Z,4.50
2023-09-07T00:55:39.531Z,4.35
2023-09-07T01:00:43.109Z,4.83
2023-09-07T01:05:49.323Z,4.60
2023-09-07T01:10:51.924Z,4.47
2023-09-07T01:16:32.074Z,4.65
2023-09-07T01:21:36.487Z,4.07
2023-09-07T01:26:39.824Z,4.40
2023-09-07T01:31:42.552Z,4.32
2023-09-07T01:36:46.517Z,4.80
2023-09-07T01:41:49.073Z,4.35
2023-09-07T01:46:51.653Z,4.63
2023-09-07T01:51:55.641Z,4.93
2023-09-07T01:56:58.129Z,4.50
2023-09-07T02:02:00.702Z,4.80
2023-09-07T02:07:05.206Z,4.97
2023-09-07T02:12:08.011Z,4.97
2023-09-07T02:17:10.850Z,4.97
2023-09-07T02:22:14.840Z,5.87
2023-09-07T02:27:17.624Z,5.30
2023-09-07T02:32:20.199Z,5.77
2023-09-07T02:37:24.281Z,5.07
2023-09-07T02:42:26.991Z,5.53
2023-09-07T02:47:29.693Z,5.13
2023-09-07T02:52:33.623Z,5.07
2023-09-07T02:57:36.805Z,5.15
2023-09-07T03:02:39.498Z,5.45
2023-09-07T03:07:43.495Z,5.17
2023-09-07T03:12:46.515Z,5.22
2023-09-07T03:17:49.070Z,5.57
2023-09-07T03:22:52.978Z,5.53
2023-09-07T03:32:58.073Z,5.75
2023-09-07T03:38:02.126Z,6.57
2023-09-07T03:43:09.656Z,6.57
2023-09-07T03:48:12.320Z,6.88
2023-09-07T03:53:16.195Z,7.43
2023-09-07T03:58:18.852Z,6.50
2023-09-07T04:03:21.677Z,7.00
2023-09-07T04:08:25.812Z,7.10
2023-09-07T04:13:28.371Z,6.60
2023-09-07T04:18:31.931Z,6.90
2023-09-07T04:23:36.537Z,6.72
2023-09-07T04:28:39.368Z,6.93
2023-09-07T04:33:41.909Z,7.07
2023-09-07T04:38:45.877Z,7.35
2023-09-07T04:43:48.485Z,7.95
2023-09-07T04:48:51.100Z,7.63
2023-09-07T04:53:55.474Z,7.28
2023-09-07T04:58:58.236Z,7.15
2023-09-07T05:04:03.141Z,6.80
2023-09-07T05:09:07.217Z,7.20
2023-09-07T05:14:09.753Z,6.63
2023-09-07T05:19:12.353Z,6.28
2023-09-07T05:24:16.622Z,6.40
2023-09-07T05:29:19.378Z,6.22
2023-09-07T05:34:21.973Z,5.80
2023-09-07T05:39:25.914Z,5.97
2023-09-07T05:44:28.488Z,7.10
2023-09-07T05:49:31.372Z,6.05
2023-09-07T05:54:35.501Z,6.27
2023-09-07T05:59:38.108Z,5.57
2023-09-07T06:04:40.840Z,5.90
2023-09-07T06:09:44.775Z,5.97
2023-09-07T06:14:47.561Z,6.07
2023-09-07T06:19:50.329Z,6.83
2023-09-07T06:24:54.369Z,6.57
2023-09-07T06:29:56.949Z,6.93
2023-09-07T06:34:59.611Z,6.47
2023-09-07T06:40:04.819Z,6.23
2023-09-07T06:45:08.393Z,6.07
2023-09-07T06:55:15.016Z,5.50
2023-09-07T07:00:17.816Z,5.03
2023-09-07T07:05:22.369Z,5.88
2023-09-07T07:10:32.415Z,5.30
2023-09-07T07:20:58.181Z,5.80
2023-09-07T07:26:02.271Z,5.80
2023-09-07T07:31:09.449Z,6.32
2023-09-07T07:36:12.032Z,6.30
2023-09-07T07:41:16.315Z,6.57
2023-09-07T07:46:20.845Z,6.55
2023-09-07T07:51:25.105Z,6.75
2023-09-07T07:56:30.747Z,6.30
2023-09-07T08:01:35.286Z,6.18
2023-09-07T08:06:38.031Z,6.15
2023-09-07T08:11:43.092Z,6.00
2023-09-07T08:16:45.912Z,5.90
2023-09-07T08:21:48.649Z,6.13
2023-09-07T08:26:55.913Z,6.30
2023-09-07T08:31:59.495Z,6.40
2023-09-07T08:37:02.193Z,5.20
2023-09-07T08:42:06.536Z,5.65
2023-09-07T08:47:09.592Z,5.88
2023-09-07T08:52:12.402Z,5.95
2023-09-07T08:57:16.864Z,6.07
2023-09-07T09:02:19.408Z,6.00
2023-09-07T09:07:23.168Z,6.00
2023-09-07T09:12:27.560Z,5.35
2023-09-07T09:17:30.486Z,6.32
2023-09-07T09:22:33.210Z,5.65
2023-09-07T09:27:38.006Z,5.35
2023-09-07T09:32:42.721Z,5.80
2023-09-07T09:37:45.984Z,6.38
2023-09-07T09:42:49.954Z,6.10
2023-09-07T09:47:53.070Z,5.97
2023-09-07T09:52:55.847Z,6.00
2023-09-07T09:57:59.862Z,6.20
2023-09-07T10:03:04.875Z,6.00
2023-09-07T10:08:10.836Z,5.90
2023-09-07T10:13:15.351Z,6.07
2023-09-07T10:18:19.884Z,5.82
2023-09-07T10:23:22.674Z,5.72
2023-09-07T10:28:27.442Z,5.80
2023-09-07T10:33:33.295Z,5.53
2023-09-07T10:38:36.277Z,5.97
2023-09-07T10:43:48.379Z,5.97
2023-09-07T10:48:51.230Z,5.55
2023-09-07T10:53:56.596Z,5.50
2023-09-07T10:59:00.673Z,6.15
2023-09-07T11:04:03.508Z,5.43
2023-09-07T11:09:09.422Z,5.82
2023-09-07T11:14:13.550Z,5.47
2023-09-07T11:19:16.673Z,5.68
2023-09-07T11:24:19.782Z,5.85
2023-09-07T11:29:24.490Z,5.53
2023-09-07T11:34:27.053Z,5.60
2023-09-07T11:39:30.641Z,5.78
2023-09-07T11:44:34.601Z,5.30
2023-09-07T11:49:37.215Z,5.38
2023-09-07T11:54:39.860Z,5.47
2023-09-07T11:59:56.769Z,5.60
2023-09-07T12:10:04.890Z,5.10
2023-09-07T12:15:09.838Z,5.00
2023-09-07T12:20:14.532Z,5.20
2023-09-07T12:25:18.951Z,4.75
2023-09-07T12:30:25.375Z,4.75
2023-09-07T12:35:28.812Z,4.85
2023-09-07T12:40:32.654Z,4.50
2023-09-07T12:45:37.948Z,4.93
2023-09-07T12:50:41.581Z,4.72
2023-09-07T12:55:44.348Z,4.00
2023-09-07T13:00:49.020Z,4.10
2023-09-07T13:05:51.743Z,4.72
2023-09-07T13:10:54.304Z,4.80
2023-09-07T13:15:58.428Z,4.70
2023-09-07T13:21:01.951Z,4.75
2023-09-07T13:26:04.716Z,5.93
2023-09-07T13:31:08.738Z,4.20
2023-09-07T13:36:11.995Z,3.92
2023-09-07T13:41:14.532Z,3.58
2023-09-07T13:46:18.457Z,3.78
2023-09-07T13:51:21.215Z,4.32
2023-09-07T13:56:23.958Z,3.70
2023-09-07T14:01:27.966Z,3.40
2023-09-07T14:06:30.552Z,3.17
2023-09-07T14:11:34.473Z,3.67
2023-09-07T14:16:38.751Z,3.47
2023-09-07T14:21:41.314Z,3.67
2023-09-07T14:26:43.858Z,3.80
2023-09-07T14:31:47.839Z,4.20
2023-09-07T14:36:50.734Z,3.40
2023-09-07T14:41:54.440Z,3.78
2023-09-07T14:46:58.619Z,3.78
2023-09-07T14:52:01.492Z,3.55
2023-09-07T14:57:04.862Z,3.20
2023-09-07T15:02:09.143Z,3.38
2023-09-07T15:07:11.754Z,3.40
2023-09-07T15:12:14.382Z,3.65
2023-09-07T15:17:19.385Z,2.90
2023-09-07T15:22:21.995Z,3.20
2023-09-07T15:27:24.611Z,2.80
2023-09-07T15:32:28.660Z,3.13
2023-09-07T15:37:31.302Z,3.10
2023-09-07T15:42:33.991Z,3.10
2023-09-07T15:47:38.048Z,3.00
2023-09-07T15:52:48.440Z,3.05
2023-09-07T15:57:51.043Z,3.40
2023-09-07T16:02:55.001Z,2.97
2023-09-07T16:07:57.713Z,2.72
2023-09-07T16:13:00.727Z,3.22
2023-09-07T16:18:05.715Z,3.38
2023-09-07T16:23:11.031Z,3.17
2023-09-07T16:28:13.700Z,2.92
2023-09-07T16:33:17.639Z,3.10
2023-09-07T16:38:20.195Z,3.00
2023-09-07T16:43:23.229Z,2.90
2023-09-07T16:48:27.614Z,3.25
2023-09-07T16:53:30.594Z,2.70
2023-09-07T17:03:40.504Z,3.28
2023-09-07T17:08:43.302Z,3.20
2023-09-07T17:13:59.562Z,3.53
2023-09-07T17:19:07.198Z,3.40
2023-09-07T17:24:10.296Z,3.20
2023-09-07T17:29:12.953Z,3.60
2023-09-07T17:34:16.934Z,3.33
2023-09-07T17:39:19.549Z,3.70
2023-09-07T17:44:22.245Z,3.90
2023-09-07T17:49:26.243Z,8.45
2023-09-07T17:54:28.882Z,4.75
2023-09-07T17:59:31.548Z,6.28
2023-09-07T18:04:35.564Z,4.85
2023-09-07T18:09:38.161Z,5.50
2023-09-07T18:14:40.760Z,4.50
2023-09-07T18:19:44.996Z,5.13
2023-09-07T18:24:47.662Z,9.88
2023-09-07T18:29:50.348Z,4.18
2023-09-07T18:34:54.500Z,4.93
2023-09-07T18:39:57.222Z,8.30
2023-09-07T18:45:00.210Z,4.40
2023-09-07T18:50:04.490Z,3.85
2023-09-07T18:55:07.525Z,3.88
2023-09-07T19:00:10.586Z,3.65
2023-09-07T19:05:14.536Z,4.57
2023-09-07T19:10:17.245Z,3.95
2023-09-07T19:15:19.830Z,4.32
2023-09-07T19:20:23.874Z,4.20
2023-09-07T19:25:26.758Z,4.40
2023-09-07T19:30:30.269Z,4.50
2023-09-07T19:35:34.298Z,4.50
2023-09-07T19:40:36.886Z,3.90
2023-09-07T19:45:39.590Z,4.17
2023-09-07T19:50:45.807Z,5.27
2023-09-07T19:55:49.469Z,4.05
2023-09-07T20:00:52.093Z,4.23
2023-09-07T20:05:56.727Z,5.40
2023-09-07T20:10:59.363Z,4.70
2023-09-07T20:16:02.030Z,5.60
2023-09-07T20:21:06.117Z,5.03
2023-09-07T20:26:08.772Z,4.40
2023-09-07T20:31:11.595Z,5.30
2023-09-07T20:36:16.564Z,4.20
2023-09-07T20:41:19.222Z,3.88
2023-09-07T20:46:22.305Z,3.90
2023-09-07T20:51:26.438Z,4.13
2023-09-07T20:56:29.261Z,3.97
2023-09-07T21:01:32.212Z,3.90
2023-09-07T21:06:36.975Z,5.63
2023-09-07T21:11:39.505Z,4.25
2023-09-07T21:16:42.114Z,3.83
2023-09-07T21:21:46.055Z,3.50
2023-09-07T21:26:48.837Z,4.03
2023-09-07T21:31:51.556Z,3.78
2023-09-07T21:36:55.722Z,4.30
2023-09-07T21:41:58.312Z,4.03
2023-09-07T21:47:01.195Z,4.60
2023-09-07T21:52:05.831Z,4.03
2023-09-07T21:57:08.576Z,4.18
2023-09-07T22:02:11.287Z,4.43
2023-09-07T22:07:15.402Z,4.53
2023-09-07T22:12:18.041Z,4.07
2023-09-07T22:17:20.748Z,4.80
2023-09-07T22:22:27.317Z,4.28
2023-09-07T22:27:30.057Z,3.88
2023-09-07T22:32:32.775Z,4.23
2023-09-07T22:37:36.755Z,4.17
2023-09-07T22:42:39.282Z,4.00
2023-09-07T22:47:42.004Z,3.78
2023-09-07T22:52:45.983Z,4.10
2023-09-07T22:57:48.753Z,4.20
2023-09-07T23:02:51.510Z,3.93
2023-09-07T23:07:55.546Z,3.87
2023-09-07T23:12:58.283Z,4.38
2023-09-07T23:18:01.396Z,4.30
2023-09-07T23:23:05.563Z,4.75
2023-09-07T23:28:08.123Z,4.20
2023-09-07T23:33:10.837Z,4.30
2023-09-07T23:38:14.779Z,4.60
2023-09-07T23:43:17.350Z,4.13
2023-09-07T23:48:19.979Z,4.28
2023-09-07T23:53:24.399Z,4.07
2023-09-07T23:58:26.971Z,4.68
